sensor_id;sensor_type;location;lat;lon;timestamp;pressure;altitude;pressure_sealevel;temperature;humidity
2268;BME280;11052;43.338;25.502;2023-03-14T00:01:36;100933.59;;;5.06;80.25
2268;BME280;11052;43.338;25.502;2023-03-14T00:04:04;100932.75;;;5.08;79.57
2268;BME280;11052;43.338;25.502;2023-03-14T00:06:31;100925.03;;;5.07;80.14
2268;BME280;11052;43.338;25.502;2023-03-14T00:08:58;100926.75;;;5.05;80.31
2268;BME280;11052;43.338;25.502;2023-03-14T00:11:25;100922.47;;;5.02;80.60
2268;BME280;11052;43.338;25.502;2023-03-14T00:13:54;100923.31;;;5.00;80.67
2268;BME280;11052;43.338;25.502;2023-03-14T00:16:21;100912.16;;;4.90;80.95
2268;BME280;11052;43.338;25.502;2023-03-14T00:18:48;100912.09;;;4.79;81.25
2268;BME280;11052;43.338;25.502;2023-03-14T00:21:15;100911.25;;;4.77;81.10
2268;BME280;11052;43.338;25.502;2023-03-14T00:23:43;100901.84;;;4.82;79.30
2268;BME280;11052;43.338;25.502;2023-03-14T00:26:11;100895.84;;;4.80;80.00
2268;BME280;11052;43.338;25.502;2023-03-14T00:28:40;100894.13;;;4.76;79.67
2268;BME280;11052;43.338;25.502;2023-03-14T00:31:10;100891.53;;;4.72;79.81
2268;BME280;11052;43.338;25.502;2023-03-14T00:33:37;100888.09;;;4.62;80.31
2268;BME280;11052;43.338;25.502;2023-03-14T00:36:07;100883.00;;;4.79;80.29
2268;BME280;11052;43.338;25.502;2023-03-14T00:38:35;100881.28;;;4.78;79.91
2268;BME280;11052;43.338;25.502;2023-03-14T00:41:03;100871.03;;;4.79;79.74
2268;BME280;11052;43.338;25.502;2023-03-14T00:43:30;100859.03;;;4.81;79.47
2268;BME280;11052;43.338;25.502;2023-03-14T00:45:58;100862.41;;;4.65;80.96
2268;BME280;11052;43.338;25.502;2023-03-14T00:48:27;100854.72;;;4.64;80.46
2268;BME280;11052;43.338;25.502;2023-03-14T00:50:54;100854.69;;;4.56;80.47
2268;BME280;11052;43.338;25.502;2023-03-14T00:53:21;100849.56;;;4.56;79.91
2268;BME280;11052;43.338;25.502;2023-03-14T00:55:48;100849.56;;;4.62;81.07
2268;BME280;11052;43.338;25.502;2023-03-14T00:58:17;100841.06;;;4.80;78.84
2268;BME280;11052;43.338;25.502;2023-03-14T01:00:45;100845.34;;;4.81;78.82
2268;BME280;11052;43.338;25.502;2023-03-14T01:03:14;100851.31;;;4.71;78.98
2268;BME280;11052;43.338;25.502;2023-03-14T01:05:43;100845.31;;;4.73;78.77
2268;BME280;11052;43.338;25.502;2023-03-14T01:08:10;100842.78;;;4.81;78.57
2268;BME280;11052;43.338;25.502;2023-03-14T01:10:38;100844.47;;;4.74;79.07
2268;BME280;11052;43.338;25.502;2023-03-14T01:13:05;100836.72;;;4.54;80.25
2268;BME280;11052;43.338;25.502;2023-03-14T01:15:33;100838.41;;;4.48;80.33
2268;BME280;11052;43.338;25.502;2023-03-14T01:18:01;100838.41;;;4.52;80.30
2268;BME280;11052;43.338;25.502;2023-03-14T01:20:28;100839.25;;;4.44;80.73
2268;BME280;11052;43.338;25.502;2023-03-14T01:22:56;100831.53;;;4.44;81.00
2268;BME280;11052;43.338;25.502;2023-03-14T01:25:23;100834.94;;;4.40;81.62
2268;BME280;11052;43.338;25.502;2023-03-14T01:27:50;100828.94;;;4.35;82.44
2268;BME280;11052;43.338;25.502;2023-03-14T01:30:18;100825.53;;;4.31;82.53
2268;BME280;11052;43.338;25.502;2023-03-14T01:32:45;100818.69;;;4.36;82.27
2268;BME280;11052;43.338;25.502;2023-03-14T01:35:12;100819.56;;;4.44;82.14
2268;BME280;11052;43.338;25.502;2023-03-14T01:37:39;100818.72;;;4.48;81.98
2268;BME280;11052;43.338;25.502;2023-03-14T01:40:10;100816.97;;;4.31;83.08
2268;BME280;11052;43.338;25.502;2023-03-14T01:42:45;100815.25;;;4.26;82.82
2268;BME280;11052;43.338;25.502;2023-03-14T01:48:12;100811.00;;;4.33;81.46
2268;BME280;11052;43.338;25.502;2023-03-14T01:50:39;100808.44;;;4.33;82.53
2268;BME280;11052;43.338;25.502;2023-03-14T01:53:07;100804.97;;;4.26;82.72
2268;BME280;11052;43.338;25.502;2023-03-14T01:55:36;100804.13;;;4.23;82.26
2268;BME280;11052;43.338;25.502;2023-03-14T01:58:04;100800.66;;;4.16;83.26
2268;BME280;11052;43.338;25.502;2023-03-14T02:00:31;100808.38;;;4.16;82.77
2268;BME280;11052;43.338;25.502;2023-03-14T02:03:02;100800.63;;;4.04;83.44
2268;BME280;11052;43.338;25.502;2023-03-14T02:05:32;100809.97;;;3.96;84.30
2268;BME280;11052;43.338;25.502;2023-03-14T02:08:02;100800.56;;;3.92;83.67
2268;BME280;11052;43.338;25.502;2023-03-14T02:10:33;100799.75;;;4.02;82.97
2268;BME280;11052;43.338;25.502;2023-03-14T02:13:04;100801.38;;;3.85;84.73
2268;BME280;11052;43.338;25.502;2023-03-14T02:15:32;100796.19;;;3.74;85.66
2268;BME280;11052;43.338;25.502;2023-03-14T02:18:01;100799.59;;;3.72;85.32
2268;BME280;11052;43.338;25.502;2023-03-14T02:20:34;100807.25;;;3.66;86.38
2268;BME280;11052;43.338;25.502;2023-03-14T02:23:05;100802.03;;;3.53;86.77
2268;BME280;11052;43.338;25.502;2023-03-14T02:25:39;100796.88;;;3.50;87.58
2268;BME280;11052;43.338;25.502;2023-03-14T02:28:11;100800.31;;;3.54;87.58
2268;BME280;11052;43.338;25.502;2023-03-14T02:30:39;100806.34;;;3.59;86.68
2268;BME280;11052;43.338;25.502;2023-03-14T02:33:08;100808.84;;;3.45;86.67
2268;BME280;11052;43.338;25.502;2023-03-14T02:35:39;100809.69;;;3.47;85.63
2268;BME280;11052;43.338;25.502;2023-03-14T02:38:11;100814.56;;;3.14;86.92
2268;BME280;11052;43.338;25.502;2023-03-14T02:40:42;100819.63;;;3.05;87.53
2268;BME280;11052;43.338;25.502;2023-03-14T02:43:09;100822.03;;;2.91;89.60
2268;BME280;11052;43.338;25.502;2023-03-14T02:45:41;100819.59;;;3.02;89.50
2268;BME280;11052;43.338;25.502;2023-03-14T02:48:13;100819.72;;;3.17;89.56
2268;BME280;11052;43.338;25.502;2023-03-14T02:50:42;100821.47;;;3.24;89.23
2268;BME280;11052;43.338;25.502;2023-03-14T02:53:12;100821.50;;;3.27;89.19
2268;BME280;11052;43.338;25.502;2023-03-14T02:55:39;100818.03;;;3.20;88.94
2268;BME280;11052;43.338;25.502;2023-03-14T02:58:06;100824.06;;;3.27;87.90
2268;BME280;11052;43.338;25.502;2023-03-14T03:00:33;100834.19;;;3.12;89.03
2268;BME280;11052;43.338;25.502;2023-03-14T03:03:02;100826.41;;;3.00;88.38
2268;BME280;11052;43.338;25.502;2023-03-14T03:05:31;100822.34;;;3.23;87.31
2268;BME280;11052;43.338;25.502;2023-03-14T03:07:58;100832.34;;;2.97;89.74
2268;BME280;11052;43.338;25.502;2023-03-14T03:10:26;100833.91;;;2.83;90.44
2268;BME280;11052;43.338;25.502;2023-03-14T03:12:53;100842.38;;;2.76;91.05
2268;BME280;11052;43.338;25.502;2023-03-14T03:15:20;100835.53;;;2.73;91.81
2268;BME280;11052;43.338;25.502;2023-03-14T03:17:47;100832.06;;;2.70;91.89
2268;BME280;11052;43.338;25.502;2023-03-14T03:20:16;100820.81;;;2.52;90.96
2268;BME280;11052;43.338;25.502;2023-03-14T03:22:43;100812.06;;;2.32;91.27
2268;BME280;11052;43.338;25.502;2023-03-14T03:25:10;100814.44;;;2.17;93.51
2268;BME280;11052;43.338;25.502;2023-03-14T03:27:38;100814.34;;;2.09;96.24
2268;BME280;11052;43.338;25.502;2023-03-14T03:30:06;100804.97;;;2.10;96.85
2268;BME280;11052;43.338;25.502;2023-03-14T03:32:33;100806.66;;;2.08;98.79
2268;BME280;11052;43.338;25.502;2023-03-14T03:35:02;100798.84;;;1.98;100.00
2268;BME280;11052;43.338;25.502;2023-03-14T03:37:32;100801.22;;;1.85;100.00
2268;BME280;11052;43.338;25.502;2023-03-14T03:39:59;100794.81;;;1.51;100.00
2268;BME280;11052;43.338;25.502;2023-03-14T03:42:26;100802.47;;;1.49;100.00
2268;BME280;11052;43.338;25.502;2023-03-14T03:44:53;100799.88;;;1.48;100.00
2268;BME280;11052;43.338;25.502;2023-03-14T03:47:20;100791.53;;;1.58;100.00
2268;BME280;11052;43.338;25.502;2023-03-14T03:49:47;100792.38;;;1.58;100.00
2268;BME280;11052;43.338;25.502;2023-03-14T03:52:14;100792.44;;;1.61;100.00
2268;BME280;11052;43.338;25.502;2023-03-14T03:54:43;100788.94;;;1.56;100.00
2268;BME280;11052;43.338;25.502;2023-03-14T03:57:10;100786.38;;;1.56;100.00
2268;BME280;11052;43.338;25.502;2023-03-14T03:59:37;100783.78;;;1.53;100.00
2268;BME280;11052;43.338;25.502;2023-03-14T04:02:06;100778.56;;;1.44;100.00
2268;BME280;11052;43.338;25.502;2023-03-14T04:04:33;100775.97;;;1.43;100.00
2268;BME280;11052;43.338;25.502;2023-03-14T04:07:00;100777.69;;;1.44;100.00
2268;BME280;11052;43.338;25.502;2023-03-14T04:09:27;100772.59;;;1.44;100.00
2268;BME280;11052;43.338;25.502;2023-03-14T04:11:56;100769.16;;;1.43;100.00
2268;BME280;11052;43.338;25.502;2023-03-14T04:14:23;100767.19;;;1.25;100.00
2268;BME280;11052;43.338;25.502;2023-03-14T04:16:50;100762.97;;;1.27;100.00
2268;BME280;11052;43.338;25.502;2023-03-14T04:19:18;100757.63;;;1.12;100.00
2268;BME280;11052;43.338;25.502;2023-03-14T04:21:45;100757.91;;;1.30;100.00
2268;BME280;11052;43.338;25.502;2023-03-14T04:24:12;100758.50;;;1.14;100.00
2268;BME280;11052;43.338;25.502;2023-03-14T04:26:39;100760.94;;;1.07;100.00
2268;BME280;11052;43.338;25.502;2023-03-14T04:29:08;100757.59;;;1.11;100.00
2268;BME280;11052;43.338;25.502;2023-03-14T04:31:35;100762.75;;;1.14;100.00
2268;BME280;11052;43.338;25.502;2023-03-14T04:34:02;100756.69;;;1.07;100.00
2268;BME280;11052;43.338;25.502;2023-03-14T04:36:29;100743.88;;;1.04;100.00
2268;BME280;11052;43.338;25.502;2023-03-14T04:38:56;100732.06;;;1.11;100.00
2268;BME280;11052;43.338;25.502;2023-03-14T04:41:23;100726.97;;;1.11;100.00
2268;BME280;11052;43.338;25.502;2023-03-14T04:43:51;100736.50;;;1.21;100.00
2268;BME280;11052;43.338;25.502;2023-03-14T04:46:19;100736.53;;;1.24;100.00
2268;BME280;11052;43.338;25.502;2023-03-14T04:48:46;100738.34;;;1.31;100.00
2268;BME280;11052;43.338;25.502;2023-03-14T04:51:13;100745.31;;;1.41;100.00
2268;BME280;11052;43.338;25.502;2023-03-14T04:53:40;100751.69;;;1.74;100.00
2268;BME280;11052;43.338;25.502;2023-03-14T04:56:08;100750.47;;;2.14;100.00
2268;BME280;11052;43.338;25.502;2023-03-14T04:58:37;100751.84;;;2.68;100.00
2268;BME280;11052;43.338;25.502;2023-03-14T05:01:05;100748.22;;;3.53;99.17
2268;BME280;11052;43.338;25.502;2023-03-14T05:03:33;100746.81;;;4.38;91.28
2268;BME280;11052;43.338;25.502;2023-03-14T05:06:01;100751.19;;;5.06;86.37
2268;BME280;11052;43.338;25.502;2023-03-14T05:08:28;100751.09;;;5.50;81.14
2268;BME280;11052;43.338;25.502;2023-03-14T05:10:56;100760.41;;;5.98;78.10
2268;BME280;11052;43.338;25.502;2023-03-14T05:13:24;100752.59;;;6.16;75.64
2268;BME280;11052;43.338;25.502;2023-03-14T05:15:51;100751.00;;;5.91;74.65
2268;BME280;11052;43.338;25.502;2023-03-14T05:18:19;100759.63;;;5.72;75.97
2268;BME280;11052;43.338;25.502;2023-03-14T05:20:50;100755.34;;;5.65;77.73
2268;BME280;11052;43.338;25.502;2023-03-14T05:23:17;100751.84;;;5.87;72.95
2268;BME280;11052;43.338;25.502;2023-03-14T05:25:44;100757.06;;;5.67;72.72
2268;BME280;11052;43.338;25.502;2023-03-14T05:28:11;100755.41;;;5.40;73.89
2268;BME280;11052;43.338;25.502;2023-03-14T05:30:38;100751.19;;;5.07;75.70
2268;BME280;11052;43.338;25.502;2023-03-14T05:33:06;100743.47;;;5.03;78.08
2268;BME280;11052;43.338;25.502;2023-03-14T05:35:33;100743.47;;;4.93;77.36
2268;BME280;11052;43.338;25.502;2023-03-14T05:38:01;100740.88;;;4.72;78.50
2268;BME280;11052;43.338;25.502;2023-03-14T05:40:28;100738.31;;;4.63;81.25
2268;BME280;11052;43.338;25.502;2023-03-14T05:42:55;100736.63;;;4.80;80.01
2268;BME280;11052;43.338;25.502;2023-03-14T05:45:23;100736.63;;;4.96;83.36
2268;BME280;11052;43.338;25.502;2023-03-14T05:47:50;100744.31;;;5.00;80.25
2268;BME280;11052;43.338;25.502;2023-03-14T05:50:17;100736.59;;;5.20;80.92
2268;BME280;11052;43.338;25.502;2023-03-14T05:52:44;100738.22;;;5.54;79.90
2268;BME280;11052;43.338;25.502;2023-03-14T05:55:12;100737.34;;;5.71;78.27
2268;BME280;11052;43.338;25.502;2023-03-14T05:57:39;100730.28;;;6.14;76.51
2268;BME280;11052;43.338;25.502;2023-03-14T06:00:08;100738.00;;;6.15;76.51
2268;BME280;11052;43.338;25.502;2023-03-14T06:02:35;100737.84;;;6.46;77.39
2268;BME280;11052;43.338;25.502;2023-03-14T06:05:02;100736.44;;;7.14;76.74
2268;BME280;11052;43.338;25.502;2023-03-14T06:07:30;100742.16;;;7.46;70.34
2268;BME280;11052;43.338;25.502;2023-03-14T06:09:57;100732.13;;;7.94;70.38
2268;BME280;11052;43.338;25.502;2023-03-14T06:12:25;100728.72;;;8.58;66.73
2268;BME280;11052;43.338;25.502;2023-03-14T06:14:52;100729.06;;;8.89;66.22
2268;BME280;11052;43.338;25.502;2023-03-14T06:17:19;100730.50;;;9.05;64.25
2268;BME280;11052;43.338;25.502;2023-03-14T06:19:47;100730.47;;;8.56;62.60
2268;BME280;11052;43.338;25.502;2023-03-14T06:22:14;100720.16;;;7.87;64.27
2268;BME280;11052;43.338;25.502;2023-03-14T06:24:41;100729.53;;;7.94;68.46
2268;BME280;11052;43.338;25.502;2023-03-14T06:27:08;100720.44;;;8.32;65.80
2268;BME280;11052;43.338;25.502;2023-03-14T06:29:36;100710.09;;;8.32;63.87
2268;BME280;11052;43.338;25.502;2023-03-14T06:32:04;100706.75;;;8.82;64.68
2268;BME280;11052;43.338;25.502;2023-03-14T06:34:31;100708.06;;;9.07;62.63
2268;BME280;11052;43.338;25.502;2023-03-14T06:36:58;100705.59;;;9.49;61.89
2268;BME280;11052;43.338;25.502;2023-03-14T06:39:25;100707.91;;;9.61;61.72
2268;BME280;11052;43.338;25.502;2023-03-14T06:41:52;100700.16;;;9.15;64.49
2268;BME280;11052;43.338;25.502;2023-03-14T06:44:20;100703.22;;;9.37;64.84
2268;BME280;11052;43.338;25.502;2023-03-14T06:46:48;100701.53;;;9.77;64.26
2268;BME280;11052;43.338;25.502;2023-03-14T06:49:15;100700.19;;;10.01;63.44
2268;BME280;11052;43.338;25.502;2023-03-14T06:51:42;100690.63;;;10.05;61.35
2268;BME280;11052;43.338;25.502;2023-03-14T06:54:09;100687.31;;;9.98;60.38
2268;BME280;11052;43.338;25.502;2023-03-14T06:56:37;100691.41;;;10.08;58.67
2268;BME280;11052;43.338;25.502;2023-03-14T06:59:05;100690.28;;;10.22;59.44
2268;BME280;11052;43.338;25.502;2023-03-14T07:01:32;100683.28;;;10.25;57.32
2268;BME280;11052;43.338;25.502;2023-03-14T07:04:02;100679.03;;;10.23;58.39
2268;BME280;11052;43.338;25.502;2023-03-14T07:06:29;100685.06;;;10.23;57.09
2268;BME280;11052;43.338;25.502;2023-03-14T07:08:57;100675.88;;;10.07;57.57
2268;BME280;11052;43.338;25.502;2023-03-14T07:11:24;100675.84;;;10.47;59.70
2268;BME280;11052;43.338;25.502;2023-03-14T07:13:51;100670.59;;;10.86;58.14
2268;BME280;11052;43.338;25.502;2023-03-14T07:16:18;100665.69;;;10.73;55.37
2268;BME280;11052;43.338;25.502;2023-03-14T07:18:45;100662.81;;;10.86;57.04
2268;BME280;11052;43.338;25.502;2023-03-14T07:21:14;100653.63;;;10.72;55.12
2268;BME280;11052;43.338;25.502;2023-03-14T07:23:41;100654.47;;;10.73;55.58
2268;BME280;11052;43.338;25.502;2023-03-14T07:26:08;100653.84;;;10.97;54.79
2268;BME280;11052;43.338;25.502;2023-03-14T07:28:35;100640.78;;;11.02;55.78
2268;BME280;11052;43.338;25.502;2023-03-14T07:31:03;100641.97;;;10.89;52.58
2268;BME280;11052;43.338;25.502;2023-03-14T07:33:30;100646.28;;;10.90;54.17
2268;BME280;11052;43.338;25.502;2023-03-14T07:35:57;100635.47;;;11.06;53.63
2268;BME280;11052;43.338;25.502;2023-03-14T07:38:26;100637.03;;;11.12;52.90
2268;BME280;11052;43.338;25.502;2023-03-14T07:40:58;100643.22;;;11.37;52.69
2268;BME280;11052;43.338;25.502;2023-03-14T07:43:26;100635.69;;;11.90;50.14
2268;BME280;11052;43.338;25.502;2023-03-14T07:45:53;100635.75;;;12.43;50.64
2268;BME280;11052;43.338;25.502;2023-03-14T07:48:20;100632.97;;;12.21;51.77
2268;BME280;11052;43.338;25.502;2023-03-14T07:50:51;100627.22;;;11.84;48.88
2268;BME280;11052;43.338;25.502;2023-03-14T07:53:18;100623.84;;;12.09;48.09
2268;BME280;11052;43.338;25.502;2023-03-14T07:55:47;100617.94;;;12.31;48.06
2268;BME280;11052;43.338;25.502;2023-03-14T07:58:14;100623.97;;;12.31;47.15
2268;BME280;11052;43.338;25.502;2023-03-14T08:00:42;100612.09;;;12.51;48.94
2268;BME280;11052;43.338;25.502;2023-03-14T08:03:10;100616.44;;;12.24;45.77
2268;BME280;11052;43.338;25.502;2023-03-14T08:05:37;100615.00;;;11.87;46.84
2268;BME280;11052;43.338;25.502;2023-03-14T08:08:05;100611.84;;;12.05;49.55
2268;BME280;11052;43.338;25.502;2023-03-14T08:10:32;100612.72;;;12.31;48.92
2268;BME280;11052;43.338;25.502;2023-03-14T08:13:01;100607.69;;;12.26;48.69
2268;BME280;11052;43.338;25.502;2023-03-14T08:15:29;100613.84;;;12.50;48.39
2268;BME280;11052;43.338;25.502;2023-03-14T08:17:57;100612.66;;;12.85;46.53
2268;BME280;11052;43.338;25.502;2023-03-14T08:20:26;100606.47;;;13.12;46.10
2268;BME280;11052;43.338;25.502;2023-03-14T08:22:55;100609.88;;;13.39;46.52
2268;BME280;11052;43.338;25.502;2023-03-14T08:25:22;100607.69;;;13.27;45.12
2268;BME280;11052;43.338;25.502;2023-03-14T08:27:51;100605.84;;;13.31;44.02
2268;BME280;11052;43.338;25.502;2023-03-14T08:30:21;100600.56;;;13.56;46.29
2268;BME280;11052;43.338;25.502;2023-03-14T08:32:48;100598.34;;;13.90;45.12
2268;BME280;11052;43.338;25.502;2023-03-14T08:35:16;100600.19;;;13.88;43.97
2268;BME280;11052;43.338;25.502;2023-03-14T08:37:43;100605.41;;;14.10;44.14
2268;BME280;11052;43.338;25.502;2023-03-14T08:40:11;100602.59;;;14.36;45.12
2268;BME280;11052;43.338;25.502;2023-03-14T08:42:39;100601.94;;;14.53;46.33
2268;BME280;11052;43.338;25.502;2023-03-14T08:45:08;100599.59;;;14.67;44.60
2268;BME280;11052;43.338;25.502;2023-03-14T08:47:37;100590.38;;;14.79;45.02
2268;BME280;11052;43.338;25.502;2023-03-14T08:50:05;100579.16;;;14.97;43.15
2268;BME280;11052;43.338;25.502;2023-03-14T08:52:32;100581.00;;;15.14;41.88
2268;BME280;11052;43.338;25.502;2023-03-14T08:54:59;100571.75;;;15.07;43.66
2268;BME280;11052;43.338;25.502;2023-03-14T08:57:26;100557.00;;;15.06;41.17
2268;BME280;11052;43.338;25.502;2023-03-14T08:59:54;100569.03;;;15.29;42.79
2268;BME280;11052;43.338;25.502;2023-03-14T09:02:22;100559.88;;;15.39;40.04
2268;BME280;11052;43.338;25.502;2023-03-14T09:04:51;100546.88;;;15.37;40.88
2268;BME280;11052;43.338;25.502;2023-03-14T09:07:18;100550.13;;;15.43;40.00
2268;BME280;11052;43.338;25.502;2023-03-14T09:09:46;100539.41;;;15.49;38.25
2268;BME280;11052;43.338;25.502;2023-03-14T09:12:13;100540.22;;;15.87;40.06
2268;BME280;11052;43.338;25.502;2023-03-14T09:14:40;100536.53;;;15.91;38.59
2268;BME280;11052;43.338;25.502;2023-03-14T09:17:07;100531.50;;;16.22;40.74
2268;BME280;11052;43.338;25.502;2023-03-14T09:19:34;100532.13;;;16.27;37.26
2268;BME280;11052;43.338;25.502;2023-03-14T09:22:03;100520.97;;;16.24;37.03
2268;BME280;11052;43.338;25.502;2023-03-14T09:24:30;100520.19;;;16.22;35.90
2268;BME280;11052;43.338;25.502;2023-03-14T09:26:58;100499.66;;;16.31;37.19
2268;BME280;11052;43.338;25.502;2023-03-14T09:29:25;100503.56;;;16.05;35.59
2268;BME280;11052;43.338;25.502;2023-03-14T09:31:52;100495.09;;;16.00;37.91
2268;BME280;11052;43.338;25.502;2023-03-14T09:34:19;100486.09;;;16.06;36.49
2268;BME280;11052;43.338;25.502;2023-03-14T09:36:46;100492.41;;;16.02;39.06
2268;BME280;11052;43.338;25.502;2023-03-14T09:39:15;100491.88;;;16.13;37.12
2268;BME280;11052;43.338;25.502;2023-03-14T09:41:44;100480.72;;;16.26;37.84
2268;BME280;11052;43.338;25.502;2023-03-14T09:44:16;100476.66;;;16.71;36.04
2268;BME280;11052;43.338;25.502;2023-03-14T09:46:46;100472.88;;;16.59;37.46
2268;BME280;11052;43.338;25.502;2023-03-14T09:49:21;100471.00;;;16.46;36.87
2268;BME280;11052;43.338;25.502;2023-03-14T09:51:51;100458.94;;;16.43;35.19
2268;BME280;11052;43.338;25.502;2023-03-14T09:54:31;100457.66;;;16.50;35.35
2268;BME280;11052;43.338;25.502;2023-03-14T09:56:58;100454.31;;;16.31;36.76
2268;BME280;11052;43.338;25.502;2023-03-14T09:59:27;100447.53;;;16.44;38.30
2268;BME280;11052;43.338;25.502;2023-03-14T10:01:56;100442.81;;;16.84;37.52
2268;BME280;11052;43.338;25.502;2023-03-14T10:04:28;100441.66;;;16.89;37.03
2268;BME280;11052;43.338;25.502;2023-03-14T10:06:55;100434.44;;;16.77;36.25
2268;BME280;11052;43.338;25.502;2023-03-14T10:09:25;100429.66;;;17.01;38.87
2268;BME280;11052;43.338;25.502;2023-03-14T10:11:56;100418.53;;;17.29;37.02
2268;BME280;11052;43.338;25.502;2023-03-14T10:14:30;100412.00;;;17.20;33.32
2268;BME280;11052;43.338;25.502;2023-03-14T10:17:06;100408.91;;;17.59;34.69
2268;BME280;11052;43.338;25.502;2023-03-14T10:19:35;100402.81;;;17.29;33.78
2268;BME280;11052;43.338;25.502;2023-03-14T10:22:04;100395.31;;;17.37;33.67
2268;BME280;11052;43.338;25.502;2023-03-14T10:24:34;100401.78;;;17.61;34.98
2268;BME280;11052;43.338;25.502;2023-03-14T10:27:03;100394.00;;;17.76;34.70
2268;BME280;11052;43.338;25.502;2023-03-14T10:29:32;100381.91;;;18.17;35.07
2268;BME280;11052;43.338;25.502;2023-03-14T10:32:03;100376.09;;;18.41;34.30
2268;BME280;11052;43.338;25.502;2023-03-14T10:34:33;100376.84;;;18.85;35.91
2268;BME280;11052;43.338;25.502;2023-03-14T10:37:06;100374.88;;;18.46;34.51
2268;BME280;11052;43.338;25.502;2023-03-14T10:39:42;100361.00;;;18.30;33.28
2268;BME280;11052;43.338;25.502;2023-03-14T10:42:16;100355.66;;;18.03;36.16
2268;BME280;11052;43.338;25.502;2023-03-14T10:44:48;100349.00;;;18.26;33.90
2268;BME280;11052;43.338;25.502;2023-03-14T10:47:19;100343.09;;;18.37;35.95
2268;BME280;11052;43.338;25.502;2023-03-14T10:49:49;100336.25;;;18.62;35.04
2268;BME280;11052;43.338;25.502;2023-03-14T10:52:21;100338.31;;;18.72;33.11
2268;BME280;11052;43.338;25.502;2023-03-14T10:54:54;100329.19;;;18.77;33.38
2268;BME280;11052;43.338;25.502;2023-03-14T10:57:23;100321.13;;;18.80;31.97
2268;BME280;11052;43.338;25.502;2023-03-14T10:59:52;100321.56;;;18.87;34.84
2268;BME280;11052;43.338;25.502;2023-03-14T11:02:34;100303.00;;;18.90;32.36
2268;BME280;11052;43.338;25.502;2023-03-14T11:05:15;100298.69;;;18.89;32.40
2268;BME280;11052;43.338;25.502;2023-03-14T11:07:45;100290.94;;;19.00;32.45
2268;BME280;11052;43.338;25.502;2023-03-14T11:10:19;100282.13;;;19.14;32.99
2268;BME280;11052;43.338;25.502;2023-03-14T11:13:01;100263.22;;;19.21;32.34
2268;BME280;11052;43.338;25.502;2023-03-14T11:15:36;100252.72;;;19.21;29.76
2268;BME280;11052;43.338;25.502;2023-03-14T11:18:34;100244.69;;;19.10;34.79
2268;BME280;11052;43.338;25.502;2023-03-14T11:21:08;100229.41;;;19.42;34.89
2268;BME280;11052;43.338;25.502;2023-03-14T11:23:42;100221.94;;;19.49;31.86
2268;BME280;11052;43.338;25.502;2023-03-14T11:26:23;100208.81;;;19.49;30.66
2268;BME280;11052;43.338;25.502;2023-03-14T11:28:57;100205.03;;;19.66;30.44
2268;BME280;11052;43.338;25.502;2023-03-14T11:31:27;100197.25;;;19.64;33.34
2268;BME280;11052;43.338;25.502;2023-03-14T11:33:58;100192.06;;;19.37;31.58
2268;BME280;11052;43.338;25.502;2023-03-14T11:36:31;100189.66;;;19.47;31.12
2268;BME280;11052;43.338;25.502;2023-03-14T11:39:00;100185.75;;;19.27;28.93
2268;BME280;11052;43.338;25.502;2023-03-14T11:41:33;100187.34;;;19.29;29.17
2268;BME280;11052;43.338;25.502;2023-03-14T11:44:07;100176.63;;;19.32;27.94
2268;BME280;11052;43.338;25.502;2023-03-14T11:46:40;100170.53;;;19.45;29.77
2268;BME280;11052;43.338;25.502;2023-03-14T11:49:16;100167.06;;;19.70;29.30
2268;BME280;11052;43.338;25.502;2023-03-14T11:51:46;100158.94;;;19.85;29.24
2268;BME280;11052;43.338;25.502;2023-03-14T11:54:18;100158.31;;;19.44;29.11
2268;BME280;11052;43.338;25.502;2023-03-14T11:56:53;100145.06;;;19.32;29.11
2268;BME280;11052;43.338;25.502;2023-03-14T11:59:24;100137.91;;;19.47;27.82
2268;BME280;11052;43.338;25.502;2023-03-14T12:01:57;100130.56;;;19.65;28.48
2268;BME280;11052;43.338;25.502;2023-03-14T12:04:39;100127.75;;;19.55;27.28
2268;BME280;11052;43.338;25.502;2023-03-14T12:07:14;100118.38;;;19.64;27.76
2268;BME280;11052;43.338;25.502;2023-03-14T12:09:45;100107.09;;;19.75;28.99
2268;BME280;11052;43.338;25.502;2023-03-14T12:12:18;100100.31;;;19.83;29.56
2268;BME280;11052;43.338;25.502;2023-03-14T12:14:53;100101.69;;;19.89;28.12
2268;BME280;11052;43.338;25.502;2023-03-14T12:17:22;100101.19;;;19.71;27.67
2268;BME280;11052;43.338;25.502;2023-03-14T12:20:01;100086.16;;;19.73;30.31
2268;BME280;11052;43.338;25.502;2023-03-14T12:22:33;100079.28;;;19.83;28.84
2268;BME280;11052;43.338;25.502;2023-03-14T12:25:05;100076.44;;;19.86;29.73
2268;BME280;11052;43.338;25.502;2023-03-14T12:28:04;100069.31;;;19.76;30.17
2268;BME280;11052;43.338;25.502;2023-03-14T12:30:33;100061.75;;;19.95;30.71
2268;BME280;11052;43.338;25.502;2023-03-14T12:33:21;100059.91;;;20.08;30.77
2268;BME280;11052;43.338;25.502;2023-03-14T12:35:58;100052.56;;;20.01;30.62
2268;BME280;11052;43.338;25.502;2023-03-14T12:38:32;100051.63;;;19.78;30.11
2268;BME280;11052;43.338;25.502;2023-03-14T12:41:14;100051.88;;;19.62;29.05
2268;BME280;11052;43.338;25.502;2023-03-14T12:43:43;100039.13;;;19.69;31.03
2268;BME280;11052;43.338;25.502;2023-03-14T12:46:21;100036.69;;;19.78;28.35
2268;BME280;11052;43.338;25.502;2023-03-14T12:48:50;100036.22;;;19.48;29.50
2268;BME280;11052;43.338;25.502;2023-03-14T12:51:28;100028.13;;;19.38;30.66
2268;BME280;11052;43.338;25.502;2023-03-14T12:57:04;100013.63;;;19.82;30.08
2268;BME280;11052;43.338;25.502;2023-03-14T12:59:36;100011.03;;;19.69;29.98
2268;BME280;11052;43.338;25.502;2023-03-14T13:02:24;100006.50;;;19.71;30.75
2268;BME280;11052;43.338;25.502;2023-03-14T13:05:01;100006.91;;;19.78;30.37
2268;BME280;11052;43.338;25.502;2023-03-14T13:07:32;100000.97;;;19.63;30.19
2268;BME280;11052;43.338;25.502;2023-03-14T13:10:03;99997.16;;;19.67;30.16
2268;BME280;11052;43.338;25.502;2023-03-14T13:12:38;99986.19;;;19.73;28.84